Latest Weather Observations for Lockhart River

IDQ60801

Issued at 4:03 pm EST Monday 25 July 2016 (issued every 30 minutes, with the page automatically refreshed every 10 minutes)

About weather observations | Map of weather stations | Latest weather observations for QLD | Other Formats
Station Details ID: 028008 Name: LOCKHART RIVER AIRPORT Lat: -12.79 Lon: 143.30 Height: 18.5 m
Data from the previous 72 hours. | See also: Recent months at Lockhart River
Date/Time
EST
Temp
°C
App
Temp
°C
Dew
Point
°C
Rel
Hum
%
Delta-T
°C
Wind Press
QNH
hPa
Press
MSL
hPa
Rain since
9am
mm
Dir  Spd
km/h
Gust
km/h
Spd
kts
Gust
kts
25/04:00pm 27.2 26.5 21.0 69 4.1 ESE 26 39 14 21 1011.7 - 0.0
25/03:30pm 27.8 26.4 20.4 64 4.9 SE 28 37 15 20 1011.8 - 0.0
25/03:00pm 27.5 25.8 19.8 63 5.0 ESE 28 43 15 23 1012.0 - 0.0
25/02:30pm 28.3 27.1 20.1 61 5.4 ESE 26 37 14 20 1012.1 - 0.0
25/02:00pm 28.1 27.2 20.6 63 4.9 ESE 26 41 14 22 1012.4 - 0.0
25/01:30pm 28.2 27.4 20.0 61 5.4 ESE 24 37 13 20 1012.6 - 0.0
25/01:00pm 28.2 26.7 20.2 62 5.3 SE 28 41 15 22 1012.9 - 0.0
25/12:30pm 28.3 27.8 20.8 63 5.0 ESE 24 35 13 19 1013.4 - 0.0
25/12:00pm 28.2 27.8 21.0 65 4.8 ESE 24 37 13 20 1013.6 - 0.0
25/11:30am 27.2 26.0 20.0 64 4.7 ESE 26 39 14 21 1013.8 - 0.0
25/11:00am 27.9 26.3 20.7 65 4.8 SE 30 41 16 22 1014.1 - 0.0
25/10:30am 27.3 27.0 21.1 69 4.1 ESE 24 39 13 21 1014.3 - 0.0
25/10:00am 26.9 26.9 21.6 72 3.5 ESE 24 35 13 19 1014.4 - 0.0
25/09:30am 26.0 24.9 21.0 74 3.3 SE 28 39 15 21 1014.2 - 0.0
25/09:00am 25.0 26.2 21.5 81 2.3 ESE 17 24 9 13 1014.1 - 0.0
25/08:30am 22.2 26.9 21.9 98 0.2 CALM 0 0 0 0 1014.0 - 0.0
25/08:00am 21.3 25.6 21.1 99 0.1 CALM 0 0 0 0 1013.7 - 0.0
25/07:30am 20.3 24.1 20.1 99 0.1 CALM 0 0 0 0 1013.4 - 0.0
25/07:00am 19.9 23.4 19.6 98 0.2 CALM 0 0 0 0 1013.2 - 0.0
25/06:30am 19.6 23.0 19.3 98 0.2 CALM 0 0 0 0 1012.8 - 0.0
25/06:00am 19.7 23.1 19.4 98 0.2 CALM 0 0 0 0 1012.5 - 0.0
25/05:30am 20.0 23.5 19.5 97 0.3 CALM 0 0 0 0 1012.3 - 0.0
25/05:00am 20.1 23.7 19.8 98 0.2 CALM 0 0 0 0 1012.3 - 0.0
25/04:30am 20.2 23.9 19.9 98 0.2 CALM 0 0 0 0 1012.2 - 0.0
25/04:00am 20.4 23.8 20.1 98 0.2 ENE 2 6 1 3 1012.3 - 0.0
25/03:30am 20.4 24.2 20.1 98 0.2 CALM 0 0 0 0 1012.3 - 0.0
25/03:00am 20.4 23.8 20.1 98 0.2 N 2 6 1 3 1012.4 - 0.0
25/02:30am 20.2 23.9 19.9 98 0.2 CALM 0 0 0 0 1012.8 - 0.0
25/02:00am 19.7 23.0 19.2 97 0.3 CALM 0 6 0 3 1013.0 - 0.0
25/01:30am 19.9 23.4 19.6 98 0.2 CALM 0 0 0 0 1013.3 - 0.0
25/01:00am 19.9 23.3 19.4 97 0.3 CALM 0 0 0 0 1013.3 - 0.0
25/12:30am 19.8 23.2 19.3 97 0.3 CALM 0 0 0 0 1013.4 - 0.0
25/12:00am 19.9 23.2 19.2 96 0.4 CALM 0 0 0 0 1013.4 - 0.0
 
Date/Time
EST
Temp
°C
App
Temp
°C
Dew
Point
°C
Rel
Hum
%
Delta-T
°C
Wind Press
QNH
hPa
Press
MSL
hPa
Rain since
9am
mm
Dir  Spd
km/h
Gust
km/h
Spd
kts
Gust
kts
24/11:30pm 19.8 23.1 19.1 96 0.4 CALM 0 0 0 0 1013.7 - 0.0
24/11:00pm 20.3 23.8 19.6 96 0.4 CALM 0 0 0 0 1013.8 - 0.0
24/10:30pm 20.5 24.1 19.8 96 0.4 CALM 0 0 0 0 1014.1 - 0.0
24/10:00pm 20.5 24.1 19.7 95 0.5 CALM 0 0 0 0 1014.0 - 0.0
24/09:30pm 20.7 24.3 19.7 94 0.6 CALM 0 0 0 0 1014.0 - 0.0
24/09:00pm 21.2 24.8 19.7 91 1.0 CALM 0 0 0 0 1013.7 - 0.0
24/08:30pm 22.0 24.4 20.1 89 1.2 SSE 7 11 4 6 1013.5 - 0.0
24/08:00pm 22.6 24.9 19.9 85 1.7 S 7 9 4 5 1013.3 - 0.0
24/07:30pm 23.8 26.0 20.3 81 2.3 SSE 9 13 5 7 1012.9 - 0.0
24/07:00pm 24.2 26.0 20.3 79 2.5 SE 11 15 6 8 1012.6 - 0.0
24/06:30pm 24.5 26.2 20.2 77 2.8 SE 11 15 6 8 1012.4 - 0.0
24/06:00pm 25.3 25.7 19.9 72 3.5 ESE 17 26 9 14 1012.2 - 0.0
24/05:30pm 26.1 26.6 20.0 69 4.0 ESE 17 24 9 13 1012.2 - 0.0
24/05:00pm 26.5 26.9 20.6 70 3.9 ESE 19 26 10 14 1012.1 - 0.0
24/04:30pm 27.4 28.0 21.0 68 4.2 ESE 19 28 10 15 1011.7 - 0.0
24/04:00pm 27.2 26.5 19.5 62 5.0 ESE 22 30 12 16 1011.5 - 0.0
24/03:30pm 28.1 28.5 20.9 65 4.8 ESE 20 30 11 16 1011.5 - 0.0
24/03:00pm 27.1 26.6 19.9 64 4.7 ESE 22 32 12 17 1011.6 - 0.0
24/02:30pm 28.2 27.5 20.2 62 5.3 ESE 24 35 13 19 1011.8 - 0.0
24/02:00pm 28.3 27.2 20.3 62 5.3 ESE 26 39 14 21 1012.0 - 0.0
24/01:30pm 28.5 28.3 20.5 62 5.3 ESE 22 33 12 18 1012.4 - 0.0
24/01:00pm 28.6 28.2 20.1 60 5.6 ESE 22 32 12 17 1012.8 - 0.0
24/12:30pm 28.2 27.5 20.2 62 5.3 ESE 24 33 13 18 1013.0 - 0.0
24/12:00pm 28.5 28.3 20.5 62 5.3 E 22 30 12 16 1013.4 - 0.0
24/11:30am 28.8 28.1 21.0 62 5.2 SE 26 33 14 18 1013.7 - 0.0
24/11:00am 28.1 28.2 20.4 63 5.1 ESE 20 33 11 18 1014.1 - 0.0
24/10:30am 27.2 26.6 20.5 67 4.4 ESE 24 35 13 19 1014.2 - 0.0
24/10:00am 27.6 27.7 21.2 68 4.3 ESE 22 30 12 16 1014.0 - 0.0
24/09:30am 27.0 26.5 20.8 69 4.1 ESE 24 33 13 18 1013.8 - 0.0
24/09:00am 26.2 26.5 20.7 71 3.6 ESE 20 33 11 18 1013.7 - 0.0
24/08:30am 24.3 27.6 21.8 86 1.7 S 7 11 4 6 1013.5 - 0.0
24/08:00am 22.1 26.5 21.3 95 0.5 CALM 0 0 0 0 1013.1 - 0.0
24/07:30am 20.4 24.2 20.1 98 0.2 CALM 0 0 0 0 1012.8 - 0.0
24/07:00am 20.1 23.6 19.6 97 0.3 CALM 0 0 0 0 1012.5 - 0.0
24/06:30am 20.0 23.5 19.5 97 0.3 CALM 0 0 0 0 1012.2 - 0.0
24/06:00am 20.4 24.1 19.9 97 0.3 CALM 0 0 0 0 1012.0 - 0.0
24/05:30am 20.8 24.5 20.0 95 0.5 CALM 0 0 0 0 1011.7 - 0.0
24/05:00am 21.1 23.8 20.3 95 0.5 S 6 7 3 4 1011.6 - 0.0
24/04:30am 21.3 24.9 20.5 95 0.5 S 2 7 1 4 1011.5 - 0.0
24/04:00am 21.3 24.5 20.5 95 0.5 SW 4 7 2 4 1011.4 - 0.0
24/03:30am 22.1 24.7 20.4 90 1.1 SE 7 9 4 5 1011.3 - 0.0
24/03:00am 22.6 25.5 20.7 89 1.2 SE 6 7 3 4 1011.5 - 0.0
24/02:30am 23.0 26.2 21.3 90 1.1 SSE 6 9 3 5 1011.8 - 0.0
24/02:00am 22.9 27.3 21.4 91 1.0 CALM 0 6 0 3 1012.0 - 0.0
24/01:30am 24.0 26.5 21.7 87 1.5 SE 11 20 6 11 1012.2 - 0.0
24/01:00am 24.0 27.1 22.1 89 1.3 ESE 9 17 5 9 1012.3 - 0.0
24/12:30am 22.0 26.4 21.3 96 0.5 CALM 0 0 0 0 1012.4 - 0.0
24/12:00am 22.3 26.8 21.6 96 0.5 CALM 0 0 0 0 1012.5 - 0.0
 
Date/Time
EST
Temp
°C
App
Temp
°C
Dew
Point
°C
Rel
Hum
%
Delta-T
°C
Wind Press
QNH
hPa
Press
MSL
hPa
Rain since
9am
mm
Dir  Spd
km/h
Gust
km/h
Spd
kts
Gust
kts
23/11:00pm 22.0 26.4 21.3 96 0.5 CALM 0 0 0 0 1012.8 - 0.0
23/10:00pm 22.1 26.5 21.3 95 0.5 CALM 0 0 0 0 1013.1 - 0.0
23/09:30pm 22.3 26.7 21.3 94 0.7 CALM 0 0 0 0 1013.0 - 0.0
23/09:00pm 22.5 27.0 21.5 94 0.7 CALM 0 0 0 0 1012.6 - 0.0
23/08:30pm 22.9 27.5 21.7 93 0.8 CALM 0 0 0 0 1012.5 - 0.0
23/08:00pm 22.8 27.2 21.3 91 1.0 CALM 0 0 0 0 1012.0 - 0.0
23/07:30pm 23.9 27.9 21.4 86 1.6 SE 2 6 1 3 1011.8 - 0.0
23/07:00pm 24.4 27.1 21.3 83 2.0 ESE 9 13 5 7 1011.5 - 0.0
23/06:30pm 24.9 26.5 21.4 81 2.3 ESE 15 19 8 10 1011.3 - 0.0
23/06:00pm 25.4 27.2 21.1 77 2.8 ESE 13 20 7 11 1011.1 - 0.0
23/05:30pm 26.4 27.5 21.2 73 3.4 ESE 17 24 9 13 1011.0 - 0.0
23/05:00pm 26.4 26.9 21.2 73 3.4 ESE 20 30 11 16 1010.7 - 0.0
23/04:30pm 26.7 26.6 20.8 70 3.9 ESE 22 35 12 19 1010.5 - 0.0
23/04:00pm 27.4 27.8 21.0 68 4.2 ESE 20 30 11 16 1010.3 - 0.0
23/03:30pm 27.8 27.9 20.4 64 4.9 ESE 20 32 11 17 1010.3 - 0.0
23/03:00pm 28.1 28.4 20.4 63 5.1 E 19 30 10 16 1010.5 1010.5 0.0
23/02:30pm 28.9 28.5 20.1 59 5.8 ESE 22 32 12 17 1010.7 - 0.0
23/02:00pm 28.7 28.8 19.9 59 5.8 E 19 28 10 15 1010.9 - 0.0
23/01:30pm 28.4 28.1 19.6 59 5.7 ESE 20 35 11 19 1011.4 - 0.0
23/01:00pm 28.5 28.5 19.7 59 5.7 ESE 19 32 10 17 1011.9 - 0.0
23/12:30pm 28.7 29.7 21.0 63 5.1 ESE 17 22 9 12 1012.3 - 0.0
23/12:00pm 27.8 26.8 19.6 61 5.3 ESE 24 35 13 19 1012.6 1012.6 0.0
23/11:30am 28.6 29.2 21.4 65 4.8 ESE 20 32 11 17 1012.8 - 0.0
23/11:00am 28.0 27.8 20.6 64 4.9 ESE 22 30 12 16 1013.2 - 0.0
23/10:30am 27.6 27.2 20.9 67 4.4 ESE 24 35 13 19 1013.4 - 0.0
23/10:00am 27.0 27.1 21.1 70 3.9 ESE 22 32 12 17 1013.5 - 0.0
23/09:30am 26.2 27.1 21.6 76 3.1 ESE 19 28 10 15 1013.7 - 0.0
23/09:00am 25.2 27.8 22.7 86 1.7 SSE 13 19 7 10 1013.7 1013.6 0.6
23/08:30am 24.3 27.4 22.9 92 0.9 SSE 11 15 6 8 1013.5 - 0.6
23/08:00am 23.4 27.1 22.2 93 0.8 ESE 6 7 3 4 1013.3 - 0.6
23/07:30am 22.7 25.9 21.7 94 0.7 SE 7 9 4 5 1013.0 - 0.6
23/07:00am 22.3 25.9 22.0 98 0.2 SE 6 13 3 7 1012.9 - 0.6
23/06:30am 21.8 26.2 21.3 97 0.3 CALM 0 0 0 0 1012.4 - 0.6
23/06:00am 22.0 25.4 21.7 98 0.2 ESE 6 7 3 4 1012.2 1012.2 0.4
23/05:30am 21.7 25.7 21.4 98 0.2 ESE 2 7 1 4 1011.7 - 0.4
23/04:00am 21.4 25.7 21.1 98 0.2 CALM 0 0 0 0 1011.5 - 0.4
23/03:00am 21.7 26.1 21.4 98 0.2 CALM 0 0 0 0 1011.6 - 0.4
23/02:30am 21.8 26.2 21.3 97 0.3 CALM 0 0 0 0 1011.9 - 0.4
23/02:00am 21.7 26.0 21.2 97 0.3 CALM 0 0 0 0 1012.1 - 0.4
23/01:30am 21.6 25.9 21.1 97 0.3 CALM 0 0 0 0 1012.3 - 0.4
23/01:00am 21.6 25.9 21.1 97 0.3 CALM 0 0 0 0 1012.4 - 0.4
23/12:30am 21.7 25.9 21.0 96 0.5 CALM 0 0 0 0 1012.6 - 0.4
23/12:00am 21.8 25.9 20.8 94 0.6 CALM 0 0 0 0 1012.8 - 0.4
 
Date/Time
EST
Temp
°C
App
Temp
°C
Dew
Point
°C
Rel
Hum
%
Delta-T
°C
Wind Press
QNH
hPa
Press
MSL
hPa
Rain since
9am
mm
Dir  Spd
km/h
Gust
km/h
Spd
kts
Gust
kts
22/11:30pm 22.4 26.6 21.0 92 0.9 CALM 0 0 0 0 1012.9 - 0.4
22/11:00pm 22.3 26.6 21.1 93 0.8 CALM 0 0 0 0 1013.2 - 0.4
22/10:30pm 22.2 26.5 21.2 94 0.7 CALM 0 0 0 0 1013.2 - 0.4
22/10:00pm 22.4 25.8 21.0 92 0.9 S 4 6 2 3 1013.1 - 0.4
22/09:30pm 21.9 26.2 21.1 95 0.5 CALM 0 0 0 0 1012.8 - 0.4
22/09:00pm 21.7 25.8 20.7 94 0.6 CALM 0 0 0 0 1012.7 - 0.4
22/08:30pm 22.0 26.1 20.8 93 0.8 CALM 0 0 0 0 1012.5 - 0.4
22/08:00pm 22.1 25.2 20.2 89 1.2 S 4 7 2 4 1012.3 - 0.4
22/07:30pm 23.3 26.2 20.6 85 1.8 SSE 6 7 3 4 1011.9 - 0.4
22/07:00pm 23.7 26.4 20.6 83 2.0 SSE 7 9 4 5 1011.8 - 0.4
22/06:30pm 24.3 26.0 20.2 78 2.7 SSE 11 15 6 8 1011.6 - 0.4
22/06:00pm 25.1 26.5 20.4 75 3.1 SSE 13 19 7 10 1011.3 - 0.4
22/05:30pm 25.9 26.6 20.5 72 3.5 SE 17 22 9 12 1011.2 - 0.4
22/05:00pm 26.8 27.4 21.3 72 3.7 SE 20 26 11 14 1011.2 - 0.4
22/04:30pm 26.5 27.6 21.3 73 3.5 ESE 17 28 9 15 1011.2 - 0.4

Other Formats:

Comma delimited format used in spreadsheet applications
http://www.bom.gov.au/fwo/IDQ60801/IDQ60801.94186.axf

JavaScript Object Notation format (JSON) in row-major order
http://www.bom.gov.au/fwo/IDQ60801/IDQ60801.94186.json